Time;durP1;ratioP1;P1;durP2;ratioP2;P2;SDS_P1;SDS_P2;PMS_P1;PMS_P2;Temp;Humidity;BMP_temperature;BMP_pressure;BME280_temperature;BME280_humidity;BME280_pressure;Samples;Min_cycle;Max_cycle;Signal;HPM_P1;HPM_P2
2023/04/30 00:01:38;;;;;;;9.13;8.43;;;;;;;11.32;100.00;100611.44;5017388;28;20204;-73
2023/04/30 00:04:04;;;;;;;7.80;7.20;;;;;;;11.27;100.00;100613.19;5021124;28;20346;-74
2023/04/30 00:06:29;;;;;;;7.53;7.03;;;;;;;11.22;100.00;100621.00;5025352;28;20195;-75
2023/04/30 00:08:55;;;;;;;7.20;6.60;;;;;;;11.20;100.00;100617.56;5022462;28;20854;-73
2023/04/30 00:11:20;;;;;;;6.97;6.47;;;;;;;11.16;100.00;100628.78;5021149;28;20195;-73
2023/04/30 00:13:46;;;;;;;6.93;6.40;;;;;;;11.11;100.00;100625.38;5023065;28;20629;-74
2023/04/30 00:16:11;;;;;;;6.10;5.70;;;;;;;11.10;100.00;100627.09;5023180;28;20222;-74
2023/04/30 00:18:37;;;;;;;6.60;5.90;;;;;;;11.08;100.00;100622.81;5021163;28;20193;-74
2023/04/30 00:21:03;;;;;;;5.83;5.33;;;;;;;11.06;100.00;100622.81;5024944;28;20337;-72
2023/04/30 00:23:28;;;;;;;6.93;6.23;;;;;;;11.04;100.00;100621.09;5021681;28;20228;-74
2023/04/30 00:25:53;;;;;;;5.77;5.37;;;;;;;11.03;100.00;100620.25;5008680;28;20207;-74
2023/04/30 00:28:19;;;;;;;5.97;5.40;;;;;;;11.02;100.00;100628.00;5024347;28;20203;-73
2023/04/30 00:30:44;;;;;;;5.60;5.20;;;;;;;11.01;100.00;100629.75;5020480;28;20229;-75
2023/04/30 00:33:10;;;;;;;5.47;5.07;;;;;;;11.01;100.00;100626.28;5025124;28;20188;-75
2023/04/30 00:35:35;;;;;;;5.77;5.27;;;;;;;11.01;100.00;100619.41;5023394;28;20180;-74
2023/04/30 00:38:00;;;;;;;5.90;5.50;;;;;;;11.00;100.00;100619.38;5023267;28;20181;-73
2023/04/30 00:40:26;;;;;;;6.37;5.87;;;;;;;10.96;100.00;100622.03;5022264;28;20244;-74
2023/04/30 00:42:54;;;;;;;5.40;5.00;;;;;;;10.93;100.00;100618.56;5006737;28;20241;-74
2023/04/30 00:45:21;;;;;;;5.43;5.03;;;;;;;10.92;100.00;100622.91;5021410;28;20203;-75
2023/04/30 00:47:47;;;;;;;5.60;5.20;;;;;;;10.93;100.00;100618.56;5021687;28;20193;-73
2023/04/30 00:50:14;;;;;;;5.63;5.23;;;;;;;10.93;100.00;100619.44;5022215;28;20191;-73
2023/04/30 00:52:41;;;;;;;5.70;5.30;;;;;;;10.94;100.00;100620.28;5024589;28;20254;-74
2023/04/30 00:55:07;;;;;;;7.33;5.77;;;;;;;10.97;100.00;100622.84;5026753;28;20182;-73
2023/04/30 00:57:34;;;;;;;5.90;5.40;;;;;;;10.97;100.00;100622.84;5025047;28;20690;-73
2023/04/30 01:00:00;;;;;;;5.73;5.23;;;;;;;10.96;100.00;100611.66;5020718;28;20187;-74
2023/04/30 01:02:26;;;;;;;5.93;5.43;;;;;;;10.97;100.00;100613.34;5024878;28;20208;-74
2023/04/30 01:04:51;;;;;;;5.80;5.40;;;;;;;10.96;100.00;100613.38;5016604;28;20200;-74
2023/04/30 01:07:17;;;;;;;5.97;5.47;;;;;;;10.95;100.00;100617.69;5014463;28;20203;-72
2023/04/30 01:09:42;;;;;;;5.53;5.13;;;;;;;10.96;100.00;100614.25;5021553;28;20202;-74
2023/04/30 01:12:36;;;;;;;6.30;5.80;;;;;;;10.96;100.00;100600.41;5006293;28;20207;-74
2023/04/30 01:15:21;;;;;;;6.47;6.07;;;;;;;10.93;100.00;100603.91;5022368;28;20196;-72
2023/04/30 01:18:04;;;;;;;6.40;5.90;;;;;;;10.89;100.00;100602.19;5024664;28;20189;-73
2023/04/30 01:20:30;;;;;;;6.40;5.90;;;;;;;10.85;100.00;100594.44;5018736;28;20195;-74
2023/04/30 01:23:27;;;;;;;6.40;5.90;;;;;;;10.81;100.00;100594.47;5023880;28;20269;-76
2023/04/30 01:26:06;;;;;;;6.90;6.30;;;;;;;10.78;100.00;100589.28;5023700;28;20228;-73
2023/04/30 01:28:35;;;;;;;6.20;5.70;;;;;;;10.74;100.00;100592.75;5020328;28;20282;-73
2023/04/30 01:31:00;;;;;;;6.63;6.03;;;;;;;10.71;100.00;100594.50;5020023;28;20275;-75
2023/04/30 01:33:26;;;;;;;6.63;6.03;;;;;;;10.69;100.00;100594.53;5022580;28;20193;-73
2023/04/30 01:36:18;;;;;;;5.97;5.47;;;;;;;10.66;100.00;100592.78;5021961;28;20271;-74
2023/04/30 01:39:03;;;;;;;6.50;6.00;;;;;;;10.64;100.00;100597.13;5021780;28;20309;-75
2023/04/30 01:41:52;;;;;;;6.63;6.03;;;;;;;10.64;100.00;100594.53;5024637;28;20219;-74
2023/04/30 01:44:24;;;;;;;6.80;6.30;;;;;;;10.62;100.00;100590.22;5022059;28;20214;-72
2023/04/30 01:46:58;;;;;;;6.50;5.90;;;;;;;10.59;100.00;100588.53;5025058;28;20671;-74
2023/04/30 01:49:29;;;;;;;6.67;6.07;;;;;;;10.59;100.00;100598.03;5022799;28;20191;-74
2023/04/30 01:52:06;;;;;;;7.17;6.57;;;;;;;10.57;100.00;100590.25;5022998;28;20746;-76
2023/04/30 01:54:43;;;;;;;6.97;6.37;;;;;;;10.55;100.00;100583.38;5006114;28;20279;-74
2023/04/30 01:57:36;;;;;;;6.77;6.20;;;;;;;10.51;100.00;100585.97;5023113;28;20191;-74
2023/04/30 02:00:03;;;;;;;7.07;6.57;;;;;;;10.52;100.00;100586.81;5009627;28;20258;-74
2023/04/30 02:02:28;;;;;;;6.90;6.20;;;;;;;10.56;100.00;100583.34;5017963;28;20466;-74
2023/04/30 02:04:53;;;;;;;7.13;6.63;;;;;;;10.52;100.00;100587.69;5022912;28;20668;-75
2023/04/30 02:07:38;;;;;;;7.20;6.63;;;;;;;10.59;100.00;100585.09;5004369;28;20219;-74
2023/04/30 02:10:05;;;;;;;7.63;6.93;;;;;;;10.61;100.00;100588.50;5019669;28;20628;-75
2023/04/30 02:12:30;;;;;;;7.00;6.40;;;;;;;10.60;100.00;100591.94;5021317;28;20222;-73
2023/04/30 02:14:55;;;;;;;7.17;6.57;;;;;;;10.62;100.00;100587.63;5024078;28;20192;-73
2023/04/30 02:17:21;;;;;;;6.77;6.20;;;;;;;10.65;100.00;100593.69;5032478;28;20175;-77
2023/04/30 02:19:46;;;;;;;7.63;6.60;;;;;;;10.67;100.00;100591.06;5054889;28;20197;-77
2023/04/30 02:22:11;;;;;;;7.17;6.07;;;;;;;10.68;100.00;100596.22;5041035;28;20306;-73
2023/04/30 02:24:37;;;;;;;7.37;6.57;;;;;;;10.69;100.00;100594.53;5027038;28;20262;-74
2023/04/30 02:27:02;;;;;;;6.90;6.37;;;;;;;10.68;100.00;100590.22;5028798;28;20184;-73
2023/04/30 02:29:28;;;;;;;6.97;6.37;;;;;;;10.73;100.00;100597.94;5029351;28;20187;-73
2023/04/30 02:31:53;;;;;;;7.00;6.40;;;;;;;10.76;100.00;100587.59;5027175;28;20209;-74
2023/04/30 02:34:18;;;;;;;7.10;6.60;;;;;;;10.76;100.00;100596.19;5025367;28;20183;-73
2023/04/30 02:36:43;;;;;;;6.93;6.23;;;;;;;10.82;100.00;100597.91;5008692;28;20184;-73
2023/04/30 02:39:09;;;;;;;6.57;6.07;;;;;;;10.81;100.00;100591.88;5025727;28;20199;-74
2023/04/30 02:41:35;;;;;;;7.13;6.27;;;;;;;10.81;100.00;100594.47;5028264;28;20203;-74
2023/04/30 02:44:00;;;;;;;7.47;6.77;;;;;;;10.81;100.00;100586.69;5024581;28;20237;-74
2023/04/30 02:46:26;;;;;;;6.60;6.00;;;;;;;10.81;100.00;100591.88;5023266;28;20625;-74
2023/04/30 02:48:51;;;;;;;6.90;6.40;;;;;;;10.80;100.00;100584.13;5026237;28;20184;-73
2023/04/30 02:51:16;;;;;;;7.40;6.80;;;;;;;10.78;100.00;100578.09;5027513;28;20216;-73
2023/04/30 02:53:41;;;;;;;6.83;6.20;;;;;;;10.76;100.00;100577.22;5025361;28;20188;-74
2023/04/30 02:56:07;;;;;;;6.73;6.23;;;;;;;10.74;100.00;100582.41;5026584;28;20679;-75
2023/04/30 02:58:32;;;;;;;6.63;6.03;;;;;;;10.73;100.00;100579.81;5009404;28;20168;-74
2023/04/30 03:00:58;;;;;;;7.47;6.83;;;;;;;10.69;100.00;100576.41;5025084;28;20206;-73
2023/04/30 03:03:23;;;;;;;8.20;7.57;;;;;;;10.66;100.00;100581.59;5024899;28;20665;-75
2023/04/30 03:05:49;;;;;;;7.47;6.87;;;;;;;10.65;100.00;100578.16;5026493;28;20257;-73
2023/04/30 03:08:14;;;;;;;7.73;7.13;;;;;;;10.60;100.00;100579.88;5025556;28;20288;-73
2023/04/30 03:10:39;;;;;;;7.57;6.97;;;;;;;10.58;100.00;100583.38;5026108;28;20213;-73
2023/04/30 03:13:05;;;;;;;7.90;7.10;;;;;;;10.51;100.00;100582.53;5024432;28;20234;-74
2023/04/30 03:15:32;;;;;;;7.97;7.37;;;;;;;10.48;100.00;100590.28;5024804;28;20207;-74
2023/04/30 03:17:57;;;;;;;7.63;7.03;;;;;;;10.45;100.00;100588.56;5011680;28;20187;-73
2023/04/30 03:20:22;;;;;;;7.90;7.20;;;;;;;10.39;100.00;100586.00;5026148;28;20202;-73
2023/04/30 03:22:47;;;;;;;7.57;6.97;;;;;;;10.36;100.00;100586.84;5024684;28;20207;-72
2023/04/30 03:25:13;;;;;;;7.97;7.27;;;;;;;10.35;100.00;100584.25;5011738;28;20558;-73
2023/04/30 03:27:38;;;;;;;8.17;7.50;;;;;;;10.31;100.00;100591.19;5009111;28;20223;-72
2023/04/30 03:30:05;;;;;;;7.93;7.23;;;;;;;10.24;100.00;100581.69;5004679;28;20190;-73
2023/04/30 03:32:31;;;;;;;8.40;7.60;;;;;;;10.19;100.00;100588.63;5021021;28;20224;-74
2023/04/30 03:34:56;;;;;;;8.03;7.40;;;;;;;10.12;100.00;100579.16;5030302;28;20187;-72
2023/04/30 03:37:21;;;;;;;8.37;7.67;;;;;;;10.08;100.00;100578.31;5031324;28;20187;-75
2023/04/30 03:39:46;;;;;;;8.47;7.77;;;;;;;10.04;100.00;100580.03;5030817;28;20179;-74
2023/04/30 03:42:12;;;;;;;8.97;8.27;;;;;;;9.98;100.00;100580.03;5024672;28;20302;-73
2023/04/30 03:44:37;;;;;;;9.10;8.23;;;;;;;9.91;100.00;100570.56;5025814;28;20687;-74
2023/04/30 03:47:03;;;;;;;8.80;8.10;;;;;;;9.84;100.00;100577.47;5022006;28;20196;-72
2023/04/30 03:49:28;;;;;;;8.90;8.10;;;;;;;9.81;100.00;100581.78;5027142;28;20218;-73
2023/04/30 03:51:54;;;;;;;9.40;8.53;;;;;;;9.82;100.00;100570.59;5008709;28;20723;-75
2023/04/30 03:54:20;;;;;;;8.47;7.83;;;;;;;9.78;100.00;100580.06;5009422;28;20631;-73
2023/04/30 03:56:45;;;;;;;9.07;8.37;;;;;;;9.75;100.00;100568.03;5024546;28;20194;-74
2023/04/30 03:59:10;;;;;;;8.47;7.87;;;;;;;9.72;100.00;100580.06;5007742;28;20542;-74
2023/04/30 04:01:36;;;;;;;9.30;8.53;;;;;;;9.73;100.00;100574.91;5025644;28;20286;-74
2023/04/30 04:04:01;;;;;;;9.27;8.47;;;;;;;9.73;100.00;100574.91;5026516;28;20187;-73
2023/04/30 04:06:26;;;;;;;9.23;8.53;;;;;;;9.73;100.00;100574.91;5005364;28;20193;-75
2023/04/30 04:08:52;;;;;;;9.67;8.83;;;;;;;9.73;100.00;100582.69;5027395;28;20190;-74
2023/04/30 04:11:17;;;;;;;9.37;8.67;;;;;;;9.76;100.00;100584.38;5009784;28;20218;-72
2023/04/30 04:13:42;;;;;;;8.93;8.23;;;;;;;9.79;100.00;100579.22;5026546;28;20266;-75
2023/04/30 04:16:08;;;;;;;9.20;8.40;;;;;;;9.81;100.00;100586.97;5024692;28;20190;-74
2023/04/30 04:18:33;;;;;;;9.63;8.77;;;;;;;9.83;100.00;100577.47;5007199;28;20184;-75
2023/04/30 04:21:00;;;;;;;9.13;8.40;;;;;;;9.88;100.00;100578.34;5007635;28;20211;-75
2023/04/30 04:23:25;;;;;;;9.10;8.20;;;;;;;9.90;100.00;100574.03;5022018;28;20629;-76
2023/04/30 04:25:51;;;;;;;10.00;9.10;;;;;;;9.94;100.00;100583.50;5027089;28;20204;-75
2023/04/30 04:28:17;;;;;;;9.20;8.40;;;;;;;9.97;100.00;100585.22;5024782;28;20217;-75
2023/04/30 04:30:42;;;;;;;9.70;8.90;;;;;;;9.99;100.00;100591.22;5022447;28;20219;-75
2023/04/30 04:33:09;;;;;;;9.13;8.37;;;;;;;10.03;100.00;100590.38;5002371;28;20212;-76
2023/04/30 04:35:34;;;;;;;9.73;8.73;;;;;;;10.07;100.00;100587.78;5005362;28;20566;-76
2023/04/30 04:38:00;;;;;;;9.57;8.73;;;;;;;10.10;100.00;100586.94;5023613;28;20187;-76
2023/04/30 04:40:25;;;;;;;10.37;8.70;;;;;;;10.14;100.00;100583.44;5021578;28;20295;-75
2023/04/30 04:42:51;;;;;;;8.73;7.83;;;;;;;10.15;100.00;100595.50;5017809;28;20864;-76
2023/04/30 04:45:16;;;;;;;9.17;8.47;;;;;;;10.14;100.00;100587.78;5023763;28;20215;-76
2023/04/30 04:47:42;;;;;;;8.80;8.10;;;;;;;10.13;100.00;100589.50;5020186;28;20712;-76
2023/04/30 04:50:07;;;;;;;9.60;8.70;;;;;;;10.14;100.00;100600.69;5025468;28;20175;-76
2023/04/30 04:52:33;;;;;;;8.97;8.27;;;;;;;10.17;100.00;100600.69;5021312;28;20208;-75
2023/04/30 04:54:58;;;;;;;8.83;8.13;;;;;;;10.18;100.00;100594.66;5006585;28;21774;-75
2023/04/30 04:57:23;;;;;;;8.83;8.13;;;;;;;10.22;100.00;100597.25;5006894;28;20277;-75
2023/04/30 04:59:49;;;;;;;9.43;8.63;;;;;;;10.28;100.00;100598.94;5018477;28;22498;-75
2023/04/30 05:02:14;;;;;;;8.97;8.27;;;;;;;10.33;100.00;100604.97;5020729;28;20619;-75
2023/04/30 05:04:40;;;;;;;9.00;8.20;;;;;;;10.39;100.00;100606.72;5021963;28;20199;-75
2023/04/30 05:07:06;;;;;;;9.50;8.70;;;;;;;10.48;100.00;100601.50;5021751;28;20755;-75
2023/04/30 05:09:32;;;;;;;8.27;7.60;;;;;;;10.51;100.00;100600.66;5009079;28;20995;-74
2023/04/30 05:11:57;;;;;;;8.37;7.70;;;;;;;10.58;100.00;100602.31;5024667;28;20210;-74
2023/04/30 05:14:23;;;;;;;9.20;8.50;;;;;;;10.66;100.00;100594.53;5021259;28;20179;-74
2023/04/30 05:16:48;;;;;;;8.90;8.20;;;;;;;10.85;100.00;100599.63;5024634;28;20194;-73
2023/04/30 05:19:13;;;;;;;8.83;8.13;;;;;;;11.15;100.00;100608.94;5006467;28;20698;-75
2023/04/30 05:21:39;;;;;;;8.23;7.53;;;;;;;11.53;100.00;100602.66;5023850;28;21090;-76
2023/04/30 05:24:04;;;;;;;8.57;7.87;;;;;;;11.91;100.00;100600.59;5023792;28;20191;-74
2023/04/30 05:26:29;;;;;;;8.10;7.40;;;;;;;12.34;100.00;100604.50;5023909;28;20627;-76
2023/04/30 05:28:55;;;;;;;7.80;7.10;;;;;;;12.70;100.00;100604.94;5023723;28;20194;-75
2023/04/30 05:31:21;;;;;;;8.43;7.70;;;;;;;12.98;100.00;100604.56;5024926;28;20208;-75
2023/04/30 05:33:46;;;;;;;7.63;6.93;;;;;;;13.17;99.67;100606.91;5024511;28;20189;-74
2023/04/30 05:36:12;;;;;;;7.37;6.77;;;;;;;13.21;98.21;100599.03;5021587;28;20197;-74
2023/04/30 05:38:37;;;;;;;7.50;6.90;;;;;;;13.59;96.73;100603.72;5023048;28;20238;-74
2023/04/30 05:41:03;;;;;;;6.97;6.27;;;;;;;14.30;94.52;100602.44;5013216;28;20217;-74
2023/04/30 05:43:28;;;;;;;7.63;6.93;;;;;;;14.61;91.78;100602.66;5024250;28;20195;-74
2023/04/30 05:45:53;;;;;;;7.30;6.70;;;;;;;15.02;90.15;100605.31;5027365;28;20199;-75
2023/04/30 05:48:19;;;;;;;7.10;6.53;;;;;;;15.26;88.94;100604.78;5002932;28;20195;-77
2023/04/30 05:50:44;;;;;;;6.43;5.93;;;;;;;15.51;87.74;100605.06;5015812;28;20259;-75
2023/04/30 05:53:09;;;;;;;6.50;6.00;;;;;;;16.07;85.71;100614.13;5021862;28;20199;-73
2023/04/30 05:55:35;;;;;;;6.70;6.20;;;;;;;16.46;83.29;100606.94;5024634;28;20179;-75
2023/04/30 05:58:00;;;;;;;6.37;5.77;;;;;;;17.06;81.84;100612.19;5024165;28;20199;-74
2023/04/30 06:00:26;;;;;;;6.37;5.80;;;;;;;17.11;80.04;100616.44;5021108;28;20218;-75
2023/04/30 06:02:52;;;;;;;6.27;5.77;;;;;;;17.35;79.57;100605.19;5023843;28;20187;-75
2023/04/30 06:05:17;;;;;;;6.43;5.93;;;;;;;17.47;79.00;100603.09;5024621;28;20291;-75
2023/04/30 06:07:42;;;;;;;6.60;6.00;;;;;;;17.63;77.65;100599.03;5009919;28;20287;-74
2023/04/30 06:10:09;;;;;;;7.27;6.33;;;;;;;18.41;76.49;100599.00;5026201;28;20190;-75
2023/04/30 06:12:34;;;;;;;6.33;5.83;;;;;;;18.23;75.77;100595.31;5025838;28;20969;-76
2023/04/30 06:14:59;;;;;;;7.07;6.43;;;;;;;18.27;75.47;100610.84;5026800;28;20228;-76
2023/04/30 06:17:25;;;;;;;6.73;6.17;;;;;;;18.35;76.04;100600.09;5023008;28;20209;-76
2023/04/30 06:19:50;;;;;;;6.90;6.30;;;;;;;18.56;75.39;100601.06;5023988;28;20351;-74
2023/04/30 06:22:15;;;;;;;6.73;6.13;;;;;;;18.60;75.00;100593.97;5025654;28;20226;-74
2023/04/30 06:24:41;;;;;;;7.20;6.60;;;;;;;19.02;73.74;100595.00;5021844;28;20211;-75
2023/04/30 06:27:06;;;;;;;6.30;5.83;;;;;;;18.96;73.75;100588.22;5023731;28;20654;-75
2023/04/30 06:29:31;;;;;;;9.00;7.17;;;;;;;18.95;73.51;100596.16;5021600;28;20215;-75
2023/04/30 06:31:56;;;;;;;6.40;5.90;;;;;;;18.41;74.64;100594.63;5017991;28;20238;-75
2023/04/30 06:34:22;;;;;;;6.40;5.80;;;;;;;18.82;74.92;100587.88;5008259;28;20285;-73
2023/04/30 06:36:47;;;;;;;6.87;6.27;;;;;;;18.83;74.66;100582.56;5019123;28;20826;-75
2023/04/30 06:39:14;;;;;;;6.43;5.93;;;;;;;19.44;73.31;100585.47;5019636;28;20290;-77
2023/04/30 06:41:40;;;;;;;7.10;6.47;;;;;;;19.84;71.72;100591.66;5020634;28;20305;-75
2023/04/30 06:44:05;;;;;;;7.00;6.30;;;;;;;19.69;71.10;100585.31;5020033;28;20197;-74
2023/04/30 06:46:30;;;;;;;8.03;6.37;;;;;;;20.01;70.73;100587.47;5021516;28;20203;-75
2023/04/30 06:48:56;;;;;;;7.40;6.73;;;;;;;20.23;70.38;100588.25;5007787;28;20199;-74
2023/04/30 06:51:21;;;;;;;7.40;6.70;;;;;;;20.26;70.22;100597.75;5021308;28;20393;-75
2023/04/30 06:53:46;;;;;;;7.07;6.53;;;;;;;20.18;70.30;100592.84;4998429;28;20191;-76
2023/04/30 06:56:12;;;;;;;7.33;6.63;;;;;;;19.80;71.22;100595.34;5014019;28;20282;-75
2023/04/30 06:58:37;;;;;;;7.53;6.93;;;;;;;19.38;71.44;100611.94;5020240;28;20180;-75
2023/04/30 07:01:02;;;;;;;7.57;6.90;;;;;;;18.63;72.22;100595.59;5019589;28;20671;-74
2023/04/30 07:03:28;;;;;;;7.13;6.53;;;;;;;18.35;73.94;100596.63;5024223;28;20211;-75
2023/04/30 07:05:53;;;;;;;7.33;6.73;;;;;;;18.87;73.00;100591.19;5022439;28;20199;-76
2023/04/30 07:08:18;;;;;;;6.60;6.10;;;;;;;19.70;71.32;100588.75;5023623;28;20199;-75
2023/04/30 07:10:44;;;;;;;7.57;6.97;;;;;;;20.32;69.67;100591.38;5012795;28;20318;-76
2023/04/30 07:13:09;;;;;;;7.10;6.60;;;;;;;20.41;69.01;100586.56;5024388;28;20194;-75
2023/04/30 07:15:35;;;;;;;6.10;5.70;;;;;;;20.74;69.05;100589.47;5024753;28;20189;-78
2023/04/30 07:18:02;;;;;;;7.70;6.90;;;;;;;19.96;69.07;100592.94;5019897;28;20270;-74
2023/04/30 07:20:28;;;;;;;7.27;6.67;;;;;;;19.38;70.65;100594.44;5006332;28;20201;-76
2023/04/30 07:22:54;;;;;;;8.33;7.63;;;;;;;18.98;71.78;100590.81;5022770;28;20199;-75
2023/04/30 07:25:20;;;;;;;8.80;7.83;;;;;;;18.85;71.76;100591.22;5024870;28;20294;-75
2023/04/30 07:27:45;;;;;;;7.10;6.60;;;;;;;18.42;73.50;100593.72;5021105;28;20713;-76
2023/04/30 07:30:11;;;;;;;7.50;6.80;;;;;;;18.40;74.03;100585.06;5018730;28;20299;-74
2023/04/30 07:32:39;;;;;;;7.07;6.47;;;;;;;18.66;73.89;100590.25;5005555;28;20225;-75
2023/04/30 07:35:05;;;;;;;8.60;7.57;;;;;;;18.12;73.99;100579.97;5020402;28;20229;-77
2023/04/30 07:37:30;;;;;;;8.07;7.03;;;;;;;18.12;74.98;100593.06;5017199;28;20277;-75
2023/04/30 07:39:56;;;;;;;7.60;7.00;;;;;;;17.93;74.51;100584.97;5002033;28;20191;-75
2023/04/30 07:42:22;;;;;;;7.00;6.40;;;;;;;18.05;74.87;100591.59;5018231;28;20386;-76
2023/04/30 07:44:48;;;;;;;7.43;6.83;;;;;;;17.29;75.73;100594.06;5023173;28;20209;-74
2023/04/30 07:47:13;;;;;;;8.20;7.40;;;;;;;17.19;77.69;100598.72;5022896;28;20200;-77
2023/04/30 07:49:38;;;;;;;8.20;7.40;;;;;;;16.57;78.79;100593.59;5005909;28;20289;-76
2023/04/30 07:52:04;;;;;;;8.00;7.17;;;;;;;16.23;79.01;100602.38;5015860;28;20223;-73
2023/04/30 07:54:30;;;;;;;8.90;8.20;;;;;;;15.73;81.34;100587.13;5003793;28;20240;-75
2023/04/30 07:56:55;;;;;;;8.33;7.57;;;;;;;15.89;81.62;100594.59;5018986;28;20225;-75
2023/04/30 07:59:23;;;;;;;7.77;7.10;;;;;;;16.11;81.25;100593.09;5018572;28;20425;-75
2023/04/30 08:01:48;;;;;;;7.83;7.17;;;;;;;16.45;79.75;100599.16;5016583;28;20216;-74
2023/04/30 08:04:14;;;;;;;8.50;7.70;;;;;;;16.65;79.75;100593.38;5027214;28;20204;-77
2023/04/30 08:06:39;;;;;;;7.37;6.67;;;;;;;16.96;78.37;100600.31;5037108;28;20278;-75
2023/04/30 08:09:04;;;;;;;7.83;7.13;;;;;;;17.06;75.70;100593.88;5015678;28;20195;-77
2023/04/30 08:11:30;;;;;;;7.07;6.40;;;;;;;17.27;75.97;100601.97;5014953;28;20307;-76
2023/04/30 08:13:55;;;;;;;8.03;7.17;;;;;;;17.31;75.72;100589.66;4998768;28;20191;-76
2023/04/30 08:16:20;;;;;;;7.60;6.90;;;;;;;17.11;75.61;100592.91;5022481;28;20189;-77
2023/04/30 08:18:48;;;;;;;7.27;6.57;;;;;;;16.97;75.31;100599.41;5024146;28;20199;-74
2023/04/30 08:21:13;;;;;;;6.70;6.20;;;;;;;17.01;75.26;100600.16;5024146;28;20218;-75
2023/04/30 08:23:39;;;;;;;7.40;6.80;;;;;;;17.02;74.85;100607.13;5023931;28;20191;-75
2023/04/30 08:26:04;;;;;;;7.40;6.70;;;;;;;17.01;75.59;100601.03;5023422;28;20771;-75
2023/04/30 08:28:30;;;;;;;8.13;7.43;;;;;;;17.01;74.92;100602.78;5024952;28;20190;-76
2023/04/30 08:30:55;;;;;;;6.70;6.10;;;;;;;17.09;74.95;100600.81;5011383;28;20251;-76
2023/04/30 08:33:21;;;;;;;6.10;5.60;;;;;;;17.22;75.72;100603.88;5009056;28;20580;-77
2023/04/30 08:35:46;;;;;;;5.80;5.40;;;;;;;17.46;75.01;100581.28;5022961;28;21107;-76
2023/04/30 08:38:12;;;;;;;8.27;6.13;;;;;;;17.51;72.98;100581.13;5023791;28;20210;-75
2023/04/30 08:40:38;;;;;;;5.80;5.30;;;;;;;17.56;72.79;100588.84;5025964;28;20404;-76
2023/04/30 08:43:05;;;;;;;6.07;5.47;;;;;;;17.49;72.97;100602.13;5023252;28;20222;-75
2023/04/30 08:45:32;;;;;;;5.40;4.90;;;;;;;17.30;72.80;100587.94;5012104;28;20576;-74
2023/04/30 08:47:59;;;;;;;6.10;5.50;;;;;;;17.13;72.97;100583.25;5021945;28;20372;-75
2023/04/30 08:50:24;;;;;;;8.30;5.73;;;;;;;17.06;74.94;100596.50;5023040;28;20189;-75
2023/04/30 08:52:49;;;;;;;6.70;6.10;;;;;;;16.66;72.99;100588.97;5025270;28;20194;-77
2023/04/30 08:55:15;;;;;;;7.13;5.90;;;;;;;16.79;73.96;100590.31;5010800;28;20194;-74
2023/04/30 08:57:40;;;;;;;6.10;5.60;;;;;;;17.02;71.74;100597.50;5011890;28;20681;-76
2023/04/30 09:00:06;;;;;;;6.17;5.37;;;;;;;17.27;71.25;100583.66;5023233;28;20225;-75
2023/04/30 09:02:33;;;;;;;5.33;4.83;;;;;;;17.46;71.30;100583.91;5022639;28;20205;-75
2023/04/30 09:04:58;;;;;;;5.13;4.73;;;;;;;17.62;70.35;100588.63;5011929;28;20261;-76
2023/04/30 09:07:27;;;;;;;4.20;3.90;;;;;;;17.95;70.15;100593.63;5024672;28;20213;-75
2023/04/30 09:09:53;;;;;;;4.57;4.17;;;;;;;17.81;68.17;100591.47;5023981;28;20185;-75
2023/04/30 09:12:18;;;;;;;5.47;4.00;;;;;;;17.81;68.05;100584.50;5022891;28;20727;-76
2023/04/30 09:14:58;;;;;;;4.10;3.70;;;;;;;17.78;66.38;100591.56;5011351;28;20189;-75
2023/04/30 09:17:24;;;;;;;3.93;3.20;;;;;;;17.73;66.50;100586.50;5019855;28;20196;-75
2023/04/30 09:19:50;;;;;;;4.10;3.80;;;;;;;17.45;66.20;100579.59;5021390;28;20197;-74
2023/04/30 09:22:22;;;;;;;3.70;3.40;;;;;;;17.63;67.32;100572.03;5022466;28;20215;-74
2023/04/30 09:24:49;;;;;;;3.83;3.30;;;;;;;18.05;67.64;100576.72;5019110;28;20216;-74
2023/04/30 09:27:20;;;;;;;5.10;4.70;;;;;;;18.34;69.18;100585.28;5020713;28;20302;-77
2023/04/30 09:29:45;;;;;;;5.80;5.20;;;;;;;18.28;69.98;100580.28;5019347;28;20196;-75
2023/04/30 09:32:12;;;;;;;6.40;5.57;;;;;;;17.67;71.35;100587.56;5021585;28;20745;-75
2023/04/30 09:34:37;;;;;;;7.03;5.90;;;;;;;17.23;73.90;100575.97;5008298;28;20195;-75
2023/04/30 09:37:03;;;;;;;6.63;5.97;;;;;;;16.96;73.13;100579.41;5022796;28;20750;-74
2023/04/30 09:39:29;;;;;;;6.27;5.03;;;;;;;16.99;73.46;100576.69;5018077;28;20194;-76
2023/04/30 09:42:07;;;;;;;5.33;4.83;;;;;;;17.20;73.36;100584.75;5022775;28;20208;-78
2023/04/30 09:44:37;;;;;;;6.37;5.40;;;;;;;17.10;72.66;100589.41;5023019;28;20295;-75
2023/04/30 09:47:03;;;;;;;5.57;5.07;;;;;;;17.01;72.14;100584.47;5008863;28;20202;-74
2023/04/30 09:49:29;;;;;;;5.47;5.07;;;;;;;17.00;72.90;100582.75;5019637;28;22180;-75
2023/04/30 09:52:00;;;;;;;5.27;4.73;;;;;;;17.30;73.29;100586.19;5013900;28;20217;-75
2023/04/30 09:54:29;;;;;;;7.90;5.40;;;;;;;17.25;73.19;100576.75;4998806;28;20688;-75
2023/04/30 09:57:00;;;;;;;5.67;5.23;;;;;;;17.34;72.08;100581.72;5022490;28;20254;-76
2023/04/30 09:59:38;;;;;;;6.07;5.47;;;;;;;17.42;71.70;100581.47;5022874;28;20207;-75
2023/04/30 10:02:05;;;;;;;6.17;5.57;;;;;;;17.57;71.09;100586.19;5007209;28;20221;-76
2023/04/30 10:04:35;;;;;;;6.20;4.87;;;;;;;17.40;70.14;100583.25;5021420;28;20293;-76
2023/04/30 10:07:11;;;;;;;5.13;4.40;;;;;;;17.47;70.90;100592.63;5022203;28;20910;-77
2023/04/30 10:09:49;;;;;;;5.10;4.60;;;;;;;17.44;70.71;100579.66;5008585;28;20622;-77
2023/04/30 10:12:18;;;;;;;4.93;4.10;;;;;;;17.36;71.38;100583.34;5007472;28;20264;-76
2023/04/30 10:14:51;;;;;;;4.90;4.50;;;;;;;17.59;70.74;100571.28;5008178;28;20193;-74
2023/04/30 10:17:17;;;;;;;4.90;4.50;;;;;;;17.61;70.77;100569.47;5022459;28;20186;-74
2023/04/30 10:19:47;;;;;;;4.77;4.30;;;;;;;17.54;69.34;100569.75;5018885;28;20209;-74
2023/04/30 10:22:13;;;;;;;4.23;3.90;;;;;;;17.41;68.59;100561.44;5019410;28;20222;-75
2023/04/30 10:24:40;;;;;;;3.40;3.10;;;;;;;17.79;69.23;100559.25;5019623;28;20560;-74
2023/04/30 10:27:06;;;;;;;4.53;3.80;;;;;;;17.79;69.37;100561.88;5006872;28;20187;-75
2023/04/30 10:29:31;;;;;;;4.30;4.00;;;;;;;17.55;68.94;100551.34;5022151;28;20191;-75
2023/04/30 10:31:57;;;;;;;4.00;3.60;;;;;;;17.43;68.78;100549.16;5020758;28;20218;-75
2023/04/30 10:34:44;;;;;;;3.83;3.40;;;;;;;17.65;69.15;100542.28;5019830;28;20190;-75
2023/04/30 10:37:27;;;;;;;4.53;3.50;;;;;;;17.53;69.00;100545.31;5005480;28;20323;-77
2023/04/30 10:39:53;;;;;;;4.00;3.07;;;;;;;17.71;68.63;100535.97;5026670;28;20205;-75
2023/04/30 10:42:18;;;;;;;4.17;3.10;;;;;;;18.10;68.01;100524.16;5025872;28;20210;-75
2023/04/30 10:44:43;;;;;;;3.30;3.00;;;;;;;18.32;67.21;100539.94;5025835;28;20221;-75
2023/04/30 10:47:09;;;;;;;3.50;3.03;;;;;;;18.32;65.89;100529.47;5010849;28;20646;-74
2023/04/30 10:49:34;;;;;;;3.87;3.07;;;;;;;18.26;65.11;100545.41;5027088;28;20186;-75
2023/04/30 10:52:02;;;;;;;3.43;3.20;;;;;;;17.95;64.80;100531.63;5027811;28;20246;-74
2023/04/30 10:54:35;;;;;;;3.33;3.00;;;;;;;17.96;66.03;100540.34;5017221;28;20670;-75
2023/04/30 10:57:16;;;;;;;2.97;2.73;;;;;;;17.67;66.59;100539.63;5024809;28;20671;-75
2023/04/30 10:59:52;;;;;;;3.07;2.87;;;;;;;18.04;66.17;100525.25;5025034;28;21512;-77
2023/04/30 11:02:18;;;;;;;2.43;2.23;;;;;;;18.15;66.38;100532.72;5027490;28;20233;-76
2023/04/30 11:05:19;;;;;;;4.43;2.80;;;;;;;18.32;65.62;100528.63;5027956;28;20210;-76
2023/04/30 11:07:57;;;;;;;3.40;3.03;;;;;;;18.28;65.37;100533.97;4969210;28;20183;-77
2023/04/30 11:10:25;;;;;;;3.40;3.10;;;;;;;18.23;65.74;100527.19;5019154;28;21407;-76
2023/04/30 11:12:53;;;;;;;3.63;3.20;;;;;;;18.31;66.02;100526.91;5025705;28;20205;-76
2023/04/30 11:15:25;;;;;;;3.83;3.53;;;;;;;18.30;66.09;100515.59;5023791;28;20272;-76
2023/04/30 11:17:56;;;;;;;3.33;3.03;;;;;;;18.39;66.28;100517.84;5027555;28;20199;-76
2023/04/30 11:20:23;;;;;;;3.23;3.00;;;;;;;18.30;66.02;100515.59;5024759;28;20740;-76
2023/04/30 11:23:07;;;;;;;3.20;2.90;;;;;;;18.54;65.50;100513.78;5025451;28;20991;-76